New River MCAS /H/ /Mccutcheon Fld/ Airport
KNCA : now visible

Airfield :











YOU CAN JOIN US ON...

 
LOGIN :

Register | Disclaimer

   EN    FR    IT 

 









Legend :    VFR   Marginal VFR   IFR   Intensive IFR   Very Intensive IFR
Visi :
Ceiling :
>= 8 km
>= 3000ft
5 to 8 km
1000 to 3000 ft
1500m to 5 km
500 to 1000 ft
800 to 1500m
200 to 500 ft
< 800m
< 200 ft
Symbols :   Thunderstorms  Fog  Heavy snow  Heavy precipitations  Wind > 20 kt






- Airport Elevation : 26 ft


KNCA - New River MCAS /H/ /Mccutcheon Fld/

CURRENT METAR :
  • 261708Z 10006KT 6SM BR SCT015 BKN080 19/17 A2984 RMK AO2 T01890167

EXPIRED METARs :
  • 261656Z 11004KT 6SM BR SCT009 BKN015 18/17 A2985 RMK AO2 SLP111 T01830167
  • 261630Z 05004KT 6SM BR FEW005 SCT009 BKN015 19/17 A2985 RMK AO2 T01890167
  • 261620Z 05004KT 10SM BR SCT005 BKN009 OVC015 18/17 A2986 RMK AO2 T01830167
  • 261556Z 08004KT 6SM BR BKN005 18/17 A2986 RMK AO2 SLP113 T01830167
  • 261548Z 00000KT 10SM OVC005 18/17 A2986 RMK AO2 CIG 004V009 T01830167
  • 261456Z 29003KT 10SM OVC004 17/17 A2988 RMK AO2 RAE32 SLP120 P0001 60003 T01720167 50006

TAF COR TAF KNCA
Valid from the 26 at 15:00 until the 27 at 15:00 UTC


2615/2715 VRB04KT 9999 OVC004 QNH2978INS
TEMPO 2615/2620 9000 -RA BR
FM270100 19012KT 9999 BKN005 OVC015 QNH2975INS
BECMG 2702/2703 22010KT 9999 VCTS BKN005 OVC015CB QNH2978INS
TEMPO 2703/2709 VRB13KT 4800 TSRA BR BKN005 OVC015CB
FM271100 29015KT 9999 SCT020 SCT080 QNH2982INS T23/2621Z T07/2712Z COR 1531



MET'MAP, your aeronautical weather chart ! - Copyright ORBIFLY December 2007 - Disclaimer

ORBIFLY MET'MAP TEAM :

Programming & Development : Alexandra Zaïnal
Concept & original design : Baudouin d'Aumeries
Assistance for programming : Marc-Olivier Méhu
Technical & hardware support : Manuel Goepfert

Contact : metmap@orbifly.com




SOURCES & CREDITS :

   NOAA       Earth
Advisory